Time;durP1;ratioP1;P1;durP2;ratioP2;P2;SDS_P1;SDS_P2;PMS_P1;PMS_P2;Temp;Humidity;BMP_temperature;BMP_pressure;BME280_temperature;BME280_humidity;BME280_pressure;Samples;Min_cycle;Max_cycle;Signal;HPM_P1;HPM_P2
2023/09/06 16:00:09;;;;;;;4.90;3.27;;;31.70;96.10;;;;;;5067195;28;20569;-69
2023/09/06 16:02:38;;;;;;;23.20;13.83;;;31.50;97.20;;;;;;5066443;28;20182;-69
2023/09/06 16:05:08;;;;;;;5.60;3.90;;;31.30;95.30;;;;;;5051882;28;20207;-69
2023/09/06 16:07:38;;;;;;;5.03;2.80;;;31.20;96.10;;;;;;5037432;28;20738;-69
2023/09/06 16:10:06;;;;;;;8.80;2.83;;;31.00;96.30;;;;;;5035134;28;20176;-67
2023/09/06 16:12:33;;;;;;;3.33;2.53;;;31.00;96.60;;;;;;5034876;28;20184;-70
2023/09/06 16:14:59;;;;;;;5.27;2.63;;;30.70;94.80;;;;;;5034315;28;20226;-69
2023/09/06 16:17:26;;;;;;;3.97;2.67;;;30.60;94.50;;;;;;5037630;28;20584;-70
2023/09/06 16:19:51;;;;;;;4.50;2.40;;;30.60;96.40;;;;;;5036242;28;20578;-70
2023/09/06 16:22:18;;;;;;;5.57;3.13;;;30.60;95.40;;;;;;5035678;28;20186;-69
2023/09/06 16:24:44;;;;;;;4.60;2.57;;;30.50;96.50;;;;;;5033620;28;20250;-69
2023/09/06 16:27:09;;;;;;;13.47;6.97;;;30.50;97.30;;;;;;5036917;28;20167;-69
2023/09/06 16:29:35;;;;;;;7.13;4.23;;;30.40;96.20;;;;;;5036784;28;20658;-69
2023/09/06 16:32:00;;;;;;;5.90;2.93;;;30.20;96.70;;;;;;5039172;28;20668;-70
2023/09/06 16:34:27;;;;;;;5.93;2.80;;;30.10;97.90;;;;;;5045826;28;20203;-67
2023/09/06 16:36:52;;;;;;;8.80;2.83;;;29.90;97.90;;;;;;5045844;28;20175;-67
2023/09/06 16:39:18;;;;;;;5.03;2.87;;;29.70;98.40;;;;;;5046332;28;20248;-70
2023/09/06 16:41:43;;;;;;;6.07;3.23;;;29.40;98.90;;;;;;5046589;28;20170;-70
2023/09/06 16:44:09;;;;;;;6.27;3.07;;;29.10;99.40;;;;;;5046412;28;20699;-66
2023/09/06 16:46:35;;;;;;;6.30;3.17;;;28.60;99.70;;;;;;5045103;28;20179;-68
2023/09/06 16:49:01;;;;;;;3.87;2.43;;;28.40;99.90;;;;;;5045674;28;20264;-68
2023/09/06 16:51:26;;;;;;;8.67;2.73;;;28.10;99.90;;;;;;5045356;28;20654;-68
2023/09/06 16:53:52;;;;;;;5.87;2.73;;;27.90;99.90;;;;;;5045152;28;20181;-67
2023/09/06 16:56:18;;;;;;;5.60;3.10;;;27.70;99.90;;;;;;5044878;28;20182;-67
2023/09/06 16:58:43;;;;;;;5.63;2.70;;;27.30;99.90;;;;;;5045808;28;20231;-67
2023/09/06 17:01:10;;;;;;;8.87;3.20;;;27.10;99.90;;;;;;5046129;28;20188;-67
2023/09/06 17:03:36;;;;;;;5.73;2.87;;;26.80;99.90;;;;;;5046149;28;20258;-67
2023/09/06 17:06:02;;;;;;;6.30;2.90;;;26.60;99.90;;;;;;5045832;28;20539;-67
2023/09/06 17:08:28;;;;;;;5.07;2.90;;;26.50;99.90;;;;;;5045407;28;20187;-67
2023/09/06 17:10:53;;;;;;;4.30;2.63;;;26.30;99.90;;;;;;5035862;28;20179;-67
2023/09/06 17:13:19;;;;;;;6.27;2.97;;;26.10;99.90;;;;;;5032641;28;20180;-67
2023/09/06 17:15:45;;;;;;;6.40;2.60;;;25.90;99.90;;;;;;5032499;28;20199;-67
2023/09/06 17:18:10;;;;;;;9.23;2.87;;;25.60;99.90;;;;;;5032066;28;20206;-67
2023/09/06 17:20:36;;;;;;;6.10;2.60;;;25.40;99.90;;;;;;5032253;28;20180;-67
2023/09/06 17:23:04;;;;;;;7.03;2.73;;;25.20;99.90;;;;;;5032444;28;20164;-67
2023/09/06 17:25:31;;;;;;;8.07;3.20;;;24.90;99.90;;;;;;5032427;28;20192;-67
2023/09/06 17:27:56;;;;;;;4.83;2.93;;;24.60;99.90;;;;;;5031954;28;20206;-67
2023/09/06 17:30:24;;;;;;;7.37;2.70;;;24.30;99.90;;;;;;5032279;28;20214;-67
2023/09/06 17:33:14;;;;;;;9.17;3.27;;;24.10;99.90;;;;;;5032222;28;20175;-67
2023/09/06 17:35:41;;;;;;;5.03;2.87;;;23.90;99.90;;;;;;5032149;28;20677;-67
2023/09/06 17:38:12;;;;;;;4.87;3.00;;;23.70;99.90;;;;;;5031768;28;20624;-67
2023/09/06 17:40:46;;;;;;;9.00;3.40;;;23.60;99.90;;;;;;5032164;28;20197;-67
2023/09/06 17:43:12;;;;;;;7.27;3.00;;;23.50;99.90;;;;;;5031485;28;20178;-67
2023/09/06 17:45:38;;;;;;;8.30;3.30;;;23.30;99.90;;;;;;5032006;28;20248;-67
2023/09/06 17:48:12;;;;;;;5.10;3.40;;;23.10;99.90;;;;;;5031446;28;20260;-67
2023/09/06 17:50:42;;;;;;;10.77;4.77;;;23.00;99.90;;;;;;5031873;28;20206;-67
2023/09/06 17:53:17;;;;;;;7.47;3.37;;;22.80;99.90;;;;;;5031988;28;20247;-67
2023/09/06 17:55:43;;;;;;;4.80;3.00;;;22.80;99.90;;;;;;5031928;28;20613;-67
2023/09/06 17:58:09;;;;;;;7.00;3.63;;;22.60;99.90;;;;;;5030864;28;20908;-67
2023/09/06 18:00:41;;;;;;;8.37;3.60;;;22.50;99.90;;;;;;5032460;28;20169;-67
2023/09/06 18:03:07;;;;;;;10.93;3.20;;;22.30;99.90;;;;;;5032632;28;20176;-67
2023/09/06 18:05:33;;;;;;;9.17;3.90;;;22.30;99.90;;;;;;5032648;28;20326;-68
2023/09/06 18:08:00;;;;;;;9.57;4.00;;;22.10;99.90;;;;;;5032378;28;20207;-67
2023/09/06 18:10:28;;;;;;;10.07;4.10;;;22.00;99.90;;;;;;5032405;28;20582;-67
2023/09/06 18:12:55;;;;;;;6.97;3.43;;;21.80;99.90;;;;;;5032412;28;20173;-67
2023/09/06 18:15:22;;;;;;;7.77;3.90;;;21.70;99.90;;;;;;5032274;28;20188;-67
2023/09/06 18:17:51;;;;;;;10.97;3.90;;;21.60;99.90;;;;;;5031761;28;20542;-67
2023/09/06 18:20:17;;;;;;;10.23;4.50;;;21.50;99.90;;;;;;5013283;28;20196;-67
2023/09/06 18:22:43;;;;;;;10.97;4.53;;;21.40;99.90;;;;;;5031073;28;20175;-67
2023/09/06 18:25:09;;;;;;;8.43;5.47;;;21.20;99.90;;;;;;5030878;28;20242;-67
2023/09/06 18:27:35;;;;;;;10.00;4.73;;;21.10;99.90;;;;;;5031614;28;20249;-67
2023/09/06 18:30:00;;;;;;;10.30;4.67;;;21.00;99.90;;;;;;5032127;28;20539;-67
2023/09/06 18:32:27;;;;;;;10.60;5.20;;;20.90;99.90;;;;;;5032121;28;20234;-67
2023/09/06 18:34:53;;;;;;;11.27;5.17;;;20.80;99.90;;;;;;5031779;28;20737;-67
2023/09/06 18:37:19;;;;;;;8.73;5.47;;;20.70;99.90;;;;;;5031488;28;20226;-67
2023/09/06 18:39:48;;;;;;;10.60;5.43;;;20.60;99.90;;;;;;5032031;28;20203;-68
2023/09/06 18:42:14;;;;;;;9.47;5.67;;;20.50;99.90;;;;;;5030479;28;20607;-67
2023/09/06 18:44:39;;;;;;;9.73;5.60;;;20.40;99.90;;;;;;5031717;28;20623;-68
2023/09/06 18:47:08;;;;;;;12.80;4.90;;;20.30;99.90;;;;;;5031141;28;20218;-67
2023/09/06 18:49:36;;;;;;;15.03;8.00;;;20.20;99.90;;;;;;5031705;28;20719;-67
2023/09/06 18:52:04;;;;;;;17.43;7.70;;;20.10;99.90;;;;;;5031530;28;20210;-67
2023/09/06 18:54:30;;;;;;;8.47;3.97;;;20.00;99.90;;;;;;5031393;28;20195;-67
2023/09/06 18:56:55;;;;;;;5.30;3.40;;;19.90;99.90;;;;;;5031109;28;20176;-68
2023/09/06 18:59:21;;;;;;;8.03;3.63;;;19.80;99.90;;;;;;5021230;28;20713;-68
2023/09/06 19:01:46;;;;;;;6.70;3.03;;;19.70;99.90;;;;;;5024392;28;20179;-68
2023/09/06 19:04:13;;;;;;;7.03;3.73;;;19.60;99.90;;;;;;5031326;28;20199;-68
2023/09/06 19:06:39;;;;;;;6.27;4.07;;;19.50;99.90;;;;;;5031503;28;20172;-68
2023/09/06 19:09:08;;;;;;;7.77;4.10;;;19.40;99.90;;;;;;5021821;28;20230;-67
2023/09/06 19:11:34;;;;;;;8.43;4.00;;;19.30;99.90;;;;;;5025554;28;20175;-67
2023/09/06 19:13:59;;;;;;;7.10;3.60;;;19.20;99.90;;;;;;5026576;28;20640;-67
2023/09/06 19:16:30;;;;;;;8.00;4.00;;;19.20;99.90;;;;;;5027172;28;20247;-67
2023/09/06 19:18:55;;;;;;;10.60;4.37;;;18.90;99.90;;;;;;5015895;28;20566;-67
2023/09/06 19:21:21;;;;;;;12.73;4.10;;;18.80;99.90;;;;;;5011229;28;20175;-67
2023/09/06 19:23:48;;;;;;;7.63;3.73;;;18.70;99.90;;;;;;5011386;28;20177;-67
2023/09/06 19:26:14;;;;;;;9.63;4.17;;;18.60;99.90;;;;;;5014472;28;20175;-67
2023/09/06 19:28:39;;;;;;;8.37;4.40;;;18.50;99.90;;;;;;5030390;28;20242;-67
2023/09/06 19:31:06;;;;;;;11.23;4.37;;;18.40;99.90;;;;;;5031011;28;20187;-67
2023/09/06 19:33:35;;;;;;;8.67;4.10;;;18.30;99.90;;;;;;5030678;28;20188;-67
2023/09/06 19:36:01;;;;;;;10.40;4.77;;;18.30;99.90;;;;;;5030723;28;20191;-66
2023/09/06 19:38:27;;;;;;;11.70;4.80;;;18.20;99.90;;;;;;5030245;28;20225;-66
2023/09/06 19:40:53;;;;;;;10.20;4.00;;;18.10;99.90;;;;;;5030870;28;20174;-66
2023/09/06 19:43:19;;;;;;;7.57;3.90;;;18.10;99.90;;;;;;5030867;28;20172;-67
2023/09/06 19:45:47;;;;;;;7.87;3.83;;;18.10;99.90;;;;;;5030823;28;20338;-67
2023/09/06 19:48:13;;;;;;;14.40;4.23;;;18.10;99.90;;;;;;5030149;28;20640;-67
2023/09/06 19:50:38;;;;;;;11.07;3.87;;;18.00;99.90;;;;;;5013977;28;20192;-67
2023/09/06 19:53:04;;;;;;;6.67;3.73;;;18.00;99.90;;;;;;5011015;28;20541;-67
2023/09/06 19:55:29;;;;;;;8.60;4.13;;;17.90;99.90;;;;;;5009641;28;20200;-67
2023/09/06 19:57:55;;;;;;;10.93;4.40;;;17.90;99.90;;;;;;5010053;28;20180;-66
2023/09/06 20:00:20;;;;;;;9.63;4.87;;;17.90;99.90;;;;;;5014189;28;20195;-67
2023/09/06 20:02:46;;;;;;;7.40;4.03;;;17.70;99.90;;;;;;5028895;28;20953;-67
2023/09/06 20:05:12;;;;;;;8.60;4.03;;;17.70;99.90;;;;;;5031052;28;20198;-67
2023/09/06 20:07:37;;;;;;;8.67;4.13;;;17.60;99.90;;;;;;5036239;28;20213;-66
2023/09/06 20:10:04;;;;;;;8.07;4.00;;;17.60;99.90;;;;;;5038223;28;20184;-66
2023/09/06 20:12:30;;;;;;;7.60;4.03;;;17.50;99.90;;;;;;5025022;28;20265;-66
2023/09/06 20:14:55;;;;;;;7.93;3.83;;;17.50;99.90;;;;;;5029314;28;20251;-66
2023/09/06 20:17:21;;;;;;;13.87;4.10;;;17.50;99.90;;;;;;5029778;28;20172;-67
2023/09/06 20:19:46;;;;;;;12.37;4.40;;;17.40;99.90;;;;;;5029877;28;20199;-67
2023/09/06 20:22:12;;;;;;;11.80;4.20;;;17.30;99.90;;;;;;5030366;28;20171;-67
2023/09/06 20:24:37;;;;;;;13.17;4.03;;;17.30;99.90;;;;;;5030321;28;20262;-67
2023/09/06 20:27:03;;;;;;;9.83;4.10;;;17.30;99.90;;;;;;5029829;28;20187;-67
2023/09/06 20:29:29;;;;;;;9.87;3.97;;;17.30;99.90;;;;;;5030363;28;20179;-67
2023/09/06 20:31:56;;;;;;;7.27;3.83;;;17.20;99.90;;;;;;5030295;28;20176;-66
2023/09/06 20:34:22;;;;;;;11.63;4.43;;;17.00;99.90;;;;;;5029070;28;20203;-67
2023/09/06 20:36:47;;;;;;;8.03;4.07;;;16.90;99.90;;;;;;5025061;28;20794;-66
2023/09/06 20:39:13;;;;;;;10.47;4.53;;;16.90;99.90;;;;;;5028189;28;20208;-66
2023/09/06 20:41:38;;;;;;;9.13;4.27;;;16.90;99.90;;;;;;5030084;28;20526;-66
2023/09/06 20:44:04;;;;;;;12.30;4.60;;;16.80;99.90;;;;;;5030273;28;20544;-67
2023/09/06 20:46:31;;;;;;;8.00;4.60;;;16.70;99.90;;;;;;5033197;28;20187;-67
2023/09/06 20:48:57;;;;;;;6.97;3.90;;;16.70;99.90;;;;;;5033340;28;20184;-67
2023/09/06 20:51:23;;;;;;;7.40;4.03;;;16.70;99.90;;;;;;5033809;28;20195;-67
2023/09/06 20:53:49;;;;;;;10.47;4.20;;;16.70;99.90;;;;;;5033990;28;20199;-67
2023/09/06 20:56:14;;;;;;;9.33;4.03;;;16.70;99.90;;;;;;5033876;28;20184;-66
2023/09/06 20:58:40;;;;;;;7.67;4.03;;;16.70;99.90;;;;;;5032855;28;20219;-66
2023/09/06 21:01:14;;;;;;;8.47;3.87;;;16.60;99.90;;;;;;5033826;28;20176;-66
2023/09/06 21:03:40;;;;;;;9.93;4.33;;;16.50;99.90;;;;;;5033593;28;20176;-66
2023/09/06 21:06:05;;;;;;;7.67;4.00;;;16.50;99.90;;;;;;5033544;28;20221;-66
2023/09/06 21:08:31;;;;;;;9.93;4.10;;;16.30;99.90;;;;;;5032743;28;20203;-66
2023/09/06 21:10:56;;;;;;;10.00;4.50;;;16.30;99.90;;;;;;5033658;28;20187;-66
2023/09/06 21:13:22;;;;;;;8.60;5.00;;;16.30;99.90;;;;;;5033475;28;20680;-66
2023/09/06 21:15:48;;;;;;;10.27;4.80;;;16.20;99.90;;;;;;5033476;28;20711;-66
2023/09/06 21:18:14;;;;;;;8.27;4.70;;;16.10;99.90;;;;;;5032739;28;20283;-66
2023/09/06 21:20:40;;;;;;;9.00;4.67;;;16.10;99.90;;;;;;5031470;28;20184;-67
2023/09/06 21:23:10;;;;;;;8.87;4.77;;;16.00;99.90;;;;;;5033351;28;20500;-66
2023/09/06 21:25:39;;;;;;;8.27;4.27;;;16.00;99.90;;;;;;5031724;28;20219;-66
2023/09/06 21:28:06;;;;;;;10.33;4.70;;;16.00;99.90;;;;;;5032670;28;20168;-66
2023/09/06 21:30:31;;;;;;;9.23;4.57;;;16.00;99.90;;;;;;5033181;28;20225;-66
2023/09/06 21:32:58;;;;;;;7.27;3.93;;;16.00;99.90;;;;;;5033218;28;20172;-66
2023/09/06 21:35:24;;;;;;;7.40;4.33;;;16.00;99.90;;;;;;5033125;28;20224;-66
2023/09/06 21:37:50;;;;;;;10.20;4.33;;;15.90;99.90;;;;;;5032404;28;20642;-66
2023/09/06 21:40:15;;;;;;;8.53;4.73;;;15.90;99.90;;;;;;5032911;28;20206;-66
2023/09/06 21:42:41;;;;;;;10.53;4.77;;;15.90;99.90;;;;;;5032912;28;20180;-67
2023/09/06 21:45:07;;;;;;;7.10;4.40;;;15.90;99.90;;;;;;5031542;28;20192;-67
2023/09/06 21:47:33;;;;;;;12.00;4.37;;;15.80;99.90;;;;;;5032376;28;20254;-67
2023/09/06 21:49:58;;;;;;;8.50;4.57;;;15.80;99.90;;;;;;5032952;28;20270;-67
2023/09/06 21:52:24;;;;;;;11.37;4.53;;;15.70;99.90;;;;;;5032865;28;20215;-66
2023/09/06 21:54:49;;;;;;;9.20;4.30;;;15.60;99.90;;;;;;5032698;28;20681;-66
2023/09/06 21:57:15;;;;;;;7.77;4.83;;;15.60;99.90;;;;;;5031889;28;20238;-66
2023/09/06 21:59:40;;;;;;;11.93;4.70;;;15.50;99.90;;;;;;5032480;28;20257;-66
2023/09/06 22:02:06;;;;;;;8.53;5.03;;;15.50;99.90;;;;;;5032610;28;20243;-66
2023/09/06 22:04:32;;;;;;;9.67;5.33;;;15.40;99.90;;;;;;5032465;28;20192;-66
2023/09/06 22:06:57;;;;;;;9.83;5.27;;;15.40;99.90;;;;;;5032067;28;20266;-66
2023/09/06 22:09:23;;;;;;;7.60;4.90;;;15.40;99.90;;;;;;5032411;28;20187;-66
2023/09/06 22:11:48;;;;;;;8.57;4.77;;;15.40;99.90;;;;;;5032532;28;20184;-66
2023/09/06 22:14:16;;;;;;;8.80;4.57;;;15.40;99.90;;;;;;5032266;28;20191;-66
2023/09/06 22:16:42;;;;;;;11.53;4.90;;;15.30;99.90;;;;;;5032274;28;20187;-66
2023/09/06 22:19:09;;;;;;;10.33;4.53;;;15.20;99.90;;;;;;5032051;28;20207;-66
2023/09/06 22:21:35;;;;;;;8.30;4.53;;;15.20;99.90;;;;;;5032343;28;20172;-66
2023/09/06 22:24:00;;;;;;;9.43;5.20;;;15.20;99.90;;;;;;5032026;28;20279;-66
2023/09/06 22:26:26;;;;;;;11.77;4.60;;;15.20;99.90;;;;;;5032178;28;20204;-66
2023/09/06 22:28:52;;;;;;;12.17;4.80;;;15.10;99.90;;;;;;5031488;28;20172;-66
2023/09/06 22:31:18;;;;;;;12.97;5.37;;;15.10;99.90;;;;;;5014272;28;20719;-66
2023/09/06 22:33:43;;;;;;;8.97;4.70;;;15.00;99.90;;;;;;5032125;28;20203;-66
2023/09/06 22:36:09;;;;;;;11.23;4.33;;;15.00;99.90;;;;;;5032653;28;20709;-66
2023/09/06 22:38:34;;;;;;;9.20;4.63;;;14.90;99.90;;;;;;5031299;28;20613;-66
2023/09/06 22:41:00;;;;;;;7.87;4.63;;;14.80;99.90;;;;;;5031933;28;20206;-66
2023/09/06 22:43:25;;;;;;;14.53;4.50;;;14.80;99.90;;;;;;5032012;28;20191;-66
2023/09/06 22:45:51;;;;;;;9.83;4.33;;;14.80;99.90;;;;;;5031643;28;20260;-66
2023/09/06 22:48:16;;;;;;;7.57;4.60;;;14.80;99.90;;;;;;5031202;28;20192;-66
2023/09/06 22:50:42;;;;;;;8.90;4.23;;;14.80;99.90;;;;;;5030268;28;20179;-66
2023/09/06 22:53:08;;;;;;;8.30;4.77;;;14.80;99.90;;;;;;5030235;28;20176;-66
2023/09/06 22:55:33;;;;;;;8.73;5.40;;;14.80;99.90;;;;;;5031494;28;20188;-66
2023/09/06 22:57:59;;;;;;;9.23;4.63;;;14.70;99.90;;;;;;5031342;28;20207;-66
2023/09/06 23:00:25;;;;;;;13.93;4.77;;;14.60;99.90;;;;;;5031441;28;20148;-66
2023/09/06 23:02:50;;;;;;;9.40;4.63;;;14.50;99.90;;;;;;5031417;28;20171;-66
2023/09/06 23:05:19;;;;;;;9.60;4.67;;;14.50;99.90;;;;;;5031296;28;20676;-66
2023/09/06 23:07:45;;;;;;;9.03;4.90;;;14.50;99.90;;;;;;5030203;28;20643;-66
2023/09/06 23:10:11;;;;;;;9.27;5.03;;;14.40;99.90;;;;;;5031452;28;20184;-66
2023/09/06 23:12:37;;;;;;;7.90;4.23;;;14.30;99.90;;;;;;5030667;28;20301;-66
2023/09/06 23:15:07;;;;;;;8.13;4.67;;;14.30;99.90;;;;;;5031377;28;20736;-66
2023/09/06 23:17:38;;;;;;;9.40;5.30;;;14.30;99.90;;;;;;5030796;28;20191;-66
2023/09/06 23:20:19;;;;;;;8.80;4.73;;;14.20;99.90;;;;;;5031382;28;20191;-66
2023/09/06 23:22:47;;;;;;;15.20;5.03;;;14.30;99.90;;;;;;5031118;28;20222;-66
2023/09/06 23:25:21;;;;;;;9.50;4.67;;;14.20;99.90;;;;;;5030990;28;20857;-66
2023/09/06 23:27:47;;;;;;;11.10;4.93;;;14.10;99.90;;;;;;5030674;28;20144;-66
2023/09/06 23:30:21;;;;;;;8.70;4.60;;;14.10;99.90;;;;;;5030950;28;20210;-66
2023/09/06 23:32:55;;;;;;;10.27;4.97;;;14.10;99.90;;;;;;5031032;28;20150;-66
2023/09/06 23:35:21;;;;;;;8.77;5.47;;;14.10;99.90;;;;;;5030927;28;20196;-66
2023/09/06 23:37:47;;;;;;;7.53;4.37;;;14.10;99.90;;;;;;5029001;28;20234;-66
2023/09/06 23:40:23;;;;;;;13.07;5.30;;;14.00;99.90;;;;;;5030845;28;20196;-66
2023/09/06 23:42:56;;;;;;;8.63;4.70;;;14.00;99.90;;;;;;5030861;28;20636;-66
2023/09/06 23:45:22;;;;;;;9.63;4.87;;;14.00;99.90;;;;;;5030750;28;20188;-66
2023/09/06 23:47:56;;;;;;;8.03;4.70;;;13.90;99.90;;;;;;5029478;28;20243;-66
2023/09/06 23:50:24;;;;;;;7.20;4.30;;;13.90;99.90;;;;;;5030587;28;20274;-66
2023/09/06 23:52:52;;;;;;;10.50;4.77;;;13.80;99.90;;;;;;5030648;28;20164;-66
2023/09/06 23:55:20;;;;;;;8.50;5.07;;;13.90;99.90;;;;;;5030776;28;20319;-66
2023/09/06 23:57:47;;;;;;;10.03;4.50;;;13.80;99.90;;;;;;5030039;28;20176;-66
